Atherton, Queensland

2:11 PM EST on July 23, 2014 (GMT +1000)
Jaques Coffee Plantation (IQLDMARE3) Elev 1316 ft | 16.96 °S, 145.44 °E | Change Station

Current weather conditions updated 22 seconds ago

Partly Cloudy
Partly Cloudy
76.5 °F
Feels Like 78 °F
N
0.0
Wind Variable Wind from East
Gusts 0.0 mph

Today is forecast to be nearly the same temperature as yesterday.

Today
High -- | Low -- °F
--% Chance of Precip.
Yesterday
High -- | Low -- °F
Precip. -- in
6:47 AM 6:02 PM
Waning Crescent, 13% visible
Pressure 29.98 in
Visibility 6.2 miles
Clouds Few 3000 ft
Heat Index 78 °F
Dew Point 58 °F
Humidity 53%
Rainfall 0.00 in
Snow Depth Not available.
UV 0.0 out of 12
Pollen Not available.
Air Quality Not available.
Flu Activity Not available.
METAR YBCS 230400Z 10010KT 9999 FEW030 26/11 Q1015 RMK FU

More Conditions Fewer Conditions

Pressure 29.98 in
Visibility 6.2 miles
Clouds Few 3000 ft
Heat Index 78 °F
Dew Point 58 °F
Humidity 53%
Rainfall 0.00 in
Snow Depth Not available.
UV 0.0 out of 12
Pollen Not available.
Air Quality Not available.
Flu Activity Not available.
METAR YBCS 230400Z 10010KT 9999 FEW030 26/11 Q1015 RMK FU

More Conditions Fewer Conditions

10-Day Weather Forecast

Almanac

Astronomy

Jul. 23, 2014 Rise Set
Actual Time 6:47 AM EST 6:02 PM EST
Civil Twilight 6:23 AM EST 6:25 PM EST
Nautical Twilight 5:57 AM EST 6:51 PM EST
Astronomical Twilight 5:31 AM EST 7:18 PM EST
Moon 3:28 AM EST 3:02 PM EST
Length of Visible Light 12h 01m
Length of Day
11h 15m
Tomorrow will be 0m 33s longer.
Waning Crescent, 13% of the Moon is Illuminated
Today
Waning Crescent
Jul 26
New
Aug 3
First Quarter
Aug 10
Full
Aug 17
Last Quarter

Yesterday's Extremes

Country Highs Country Lows

Community

WunderPhotos

Upload Photos

1,736,490 photos uploaded!

Nearby

Snow Depth

Not available.

Earthquake Activity

City Distance Mag. Time & Date
No recent earthquake activity has been reported nearby.
Minimum magnitude displayed is 2.5.

Coastal Water Temperatures

Place Temperature
No Stations Reporting

Nearby Weather Stations

Station Location Temp. Heat Index Dew Point Humidity Wind Precip. Elev Updated Type
Jaques Coffee Plantation, Mareeba 76.5 °F 78 °F 58 °F 53% East  at  0.0 mph 0.00 in / hr 1316 ft 2:11 PM EST Rapid Fire
Collins Park, Atherton, Solar Cres 72.1 °F 77 °F 55 °F 54% SE  at  6.9 mph 0.00 in / hr 2520 ft 2:11 PM EST Rapid Fire
Collins Park, Atherton Live Weather 68.4 °F - 56 °F 64% ESE  at  6.0 mph 0.00 in / hr 2520 ft 2:11 PM EST Rapid Fire
Rangeview, Tolga 70.5 °F 76 °F 54 °F 57% East  at  11.0 mph 0.00 in / hr 2464 ft 2:10 PM EST Rapid Fire
Mareeba, (Cairns), Paddy's Green 75.3 °F 78 °F 55 °F 49% ENE  at  6.0 mph 0.00 in / hr 1739 ft 2:11 PM EST Normal
Upper Barron, Upper Barron 69.5 °F - 56 °F 64% ENE  at  4.0 mph 0.00 in / hr 2661 ft 2:01 PM EST Normal
Atherton Tablelands, Peeramon 74.3 °F 75 °F 24 °F 15% East  at  7.4 mph 0.00 in / hr 2493 ft 2:11 PM EST Rapid Fire

Show More Stations Show Fewer Stations